sensor_id;sensor_type;location;lat;lon;timestamp;P1;durP1;ratioP1;P2;durP2;ratioP2
74231;SDS011;62590;52.430;4.902;2022-09-29T00:00:43;6.00;;;1.98;;
74231;SDS011;62590;52.430;4.902;2022-09-29T00:03:08;6.68;;;2.33;;
74231;SDS011;62590;52.430;4.902;2022-09-29T00:05:34;8.98;;;2.38;;
74231;SDS011;62590;52.430;4.902;2022-09-29T00:07:59;5.55;;;2.35;;
74231;SDS011;62590;52.430;4.902;2022-09-29T00:10:25;7.80;;;2.55;;
74231;SDS011;62590;52.430;4.902;2022-09-29T00:12:50;5.63;;;2.47;;
74231;SDS011;62590;52.430;4.902;2022-09-29T00:15:16;5.53;;;2.47;;
74231;SDS011;62590;52.430;4.902;2022-09-29T00:17:41;6.80;;;2.33;;
74231;SDS011;62590;52.430;4.902;2022-09-29T00:20:06;4.78;;;2.38;;
74231;SDS011;62590;52.430;4.902;2022-09-29T00:22:33;4.45;;;2.65;;
74231;SDS011;62590;52.430;4.902;2022-09-29T00:24:58;6.95;;;2.70;;
74231;SDS011;62590;52.430;4.902;2022-09-29T00:27:24;6.28;;;2.45;;
74231;SDS011;62590;52.430;4.902;2022-09-29T00:29:49;8.20;;;2.65;;
74231;SDS011;62590;52.430;4.902;2022-09-29T00:32:15;6.57;;;2.47;;
74231;SDS011;62590;52.430;4.902;2022-09-29T00:34:41;5.90;;;2.72;;
74231;SDS011;62590;52.430;4.902;2022-09-29T00:37:06;5.28;;;2.70;;
74231;SDS011;62590;52.430;4.902;2022-09-29T00:39:31;6.43;;;2.65;;
74231;SDS011;62590;52.430;4.902;2022-09-29T00:41:57;4.95;;;2.38;;
74231;SDS011;62590;52.430;4.902;2022-09-29T00:47:13;7.05;;;2.83;;
74231;SDS011;62590;52.430;4.902;2022-09-29T00:49:46;5.22;;;2.75;;
74231;SDS011;62590;52.430;4.902;2022-09-29T00:52:27;8.85;;;2.65;;
74231;SDS011;62590;52.430;4.902;2022-09-29T00:55:15;5.03;;;2.83;;
74231;SDS011;62590;52.430;4.902;2022-09-29T00:57:43;7.60;;;3.17;;
74231;SDS011;62590;52.430;4.902;2022-09-29T01:00:14;5.45;;;3.17;;
74231;SDS011;62590;52.430;4.902;2022-09-29T01:02:42;7.78;;;3.38;;
74231;SDS011;62590;52.430;4.902;2022-09-29T01:05:17;5.80;;;2.75;;
74231;SDS011;62590;52.430;4.902;2022-09-29T01:07:48;5.40;;;2.88;;
74231;SDS011;62590;52.430;4.902;2022-09-29T01:10:15;8.32;;;2.72;;
74231;SDS011;62590;52.430;4.902;2022-09-29T01:12:42;11.70;;;3.25;;
74231;SDS011;62590;52.430;4.902;2022-09-29T01:15:10;4.75;;;2.83;;
74231;SDS011;62590;52.430;4.902;2022-09-29T01:17:38;8.30;;;2.70;;
74231;SDS011;62590;52.430;4.902;2022-09-29T01:20:10;5.75;;;2.55;;
74231;SDS011;62590;52.430;4.902;2022-09-29T01:22:57;5.93;;;2.38;;
74231;SDS011;62590;52.430;4.902;2022-09-29T01:36:02;11.95;;;3.88;;
74231;SDS011;62590;52.430;4.902;2022-09-29T01:47:11;7.18;;;3.97;;
74231;SDS011;62590;52.430;4.902;2022-09-29T01:49:43;10.27;;;3.70;;
74231;SDS011;62590;52.430;4.902;2022-09-29T01:52:16;9.27;;;4.25;;
74231;SDS011;62590;52.430;4.902;2022-09-29T01:57:25;8.40;;;4.10;;
74231;SDS011;62590;52.430;4.902;2022-09-29T02:00:06;6.50;;;3.60;;
74231;SDS011;62590;52.430;4.902;2022-09-29T02:02:57;9.02;;;4.03;;
74231;SDS011;62590;52.430;4.902;2022-09-29T02:05:30;12.88;;;3.78;;
74231;SDS011;62590;52.430;4.902;2022-09-29T02:08:01;8.10;;;4.25;;
74231;SDS011;62590;52.430;4.902;2022-09-29T02:10:39;9.33;;;4.37;;
74231;SDS011;62590;52.430;4.902;2022-09-29T02:13:13;10.48;;;5.00;;
74231;SDS011;62590;52.430;4.902;2022-09-29T02:15:42;6.90;;;4.10;;
74231;SDS011;62590;52.430;4.902;2022-09-29T02:18:11;6.80;;;3.90;;
74231;SDS011;62590;52.430;4.902;2022-09-29T02:20:41;13.50;;;4.32;;
74231;SDS011;62590;52.430;4.902;2022-09-29T02:23:06;8.57;;;4.25;;
74231;SDS011;62590;52.430;4.902;2022-09-29T02:25:34;13.77;;;4.43;;
74231;SDS011;62590;52.430;4.902;2022-09-29T02:28:02;7.47;;;3.92;;
74231;SDS011;62590;52.430;4.902;2022-09-29T02:30:29;7.55;;;3.83;;
74231;SDS011;62590;52.430;4.902;2022-09-29T02:32:54;6.43;;;3.90;;
74231;SDS011;62590;52.430;4.902;2022-09-29T02:35:20;7.35;;;3.88;;
74231;SDS011;62590;52.430;4.902;2022-09-29T02:37:58;8.32;;;3.67;;
74231;SDS011;62590;52.430;4.902;2022-09-29T02:40:40;6.07;;;3.20;;
74231;SDS011;62590;52.430;4.902;2022-09-29T02:59:17;5.88;;;3.70;;
74231;SDS011;62590;52.430;4.902;2022-09-29T03:01:55;5.68;;;2.88;;
74231;SDS011;62590;52.430;4.902;2022-09-29T03:06:48;7.20;;;3.10;;
74231;SDS011;62590;52.430;4.902;2022-09-29T03:09:13;6.22;;;3.10;;
74231;SDS011;62590;52.430;4.902;2022-09-29T03:11:39;10.82;;;3.45;;
74231;SDS011;62590;52.430;4.902;2022-09-29T03:14:04;8.40;;;3.22;;
74231;SDS011;62590;52.430;4.902;2022-09-29T03:16:30;5.07;;;2.85;;
74231;SDS011;62590;52.430;4.902;2022-09-29T03:18:56;6.68;;;3.55;;
74231;SDS011;62590;52.430;4.902;2022-09-29T03:21:22;7.93;;;3.08;;
74231;SDS011;62590;52.430;4.902;2022-09-29T03:23:47;4.05;;;2.55;;
74231;SDS011;62590;52.430;4.902;2022-09-29T03:26:12;7.05;;;3.72;;
74231;SDS011;62590;52.430;4.902;2022-09-29T03:28:38;4.68;;;3.05;;
74231;SDS011;62590;52.430;4.902;2022-09-29T03:31:04;6.18;;;3.17;;
74231;SDS011;62590;52.430;4.902;2022-09-29T03:33:36;4.75;;;2.92;;
74231;SDS011;62590;52.430;4.902;2022-09-29T03:36:02;6.97;;;3.72;;
74231;SDS011;62590;52.430;4.902;2022-09-29T03:38:29;6.55;;;3.17;;
74231;SDS011;62590;52.430;4.902;2022-09-29T03:40:55;5.82;;;3.72;;
74231;SDS011;62590;52.430;4.902;2022-09-29T03:43:20;5.80;;;3.15;;
74231;SDS011;62590;52.430;4.902;2022-09-29T03:45:46;6.20;;;2.95;;
74231;SDS011;62590;52.430;4.902;2022-09-29T03:48:16;8.18;;;3.63;;
74231;SDS011;62590;52.430;4.902;2022-09-29T03:50:43;5.43;;;3.55;;
74231;SDS011;62590;52.430;4.902;2022-09-29T03:53:08;5.45;;;3.25;;
74231;SDS011;62590;52.430;4.902;2022-09-29T03:55:34;5.65;;;3.63;;
74231;SDS011;62590;52.430;4.902;2022-09-29T03:57:59;5.40;;;3.05;;
74231;SDS011;62590;52.430;4.902;2022-09-29T04:00:24;5.00;;;3.58;;
74231;SDS011;62590;52.430;4.902;2022-09-29T04:02:50;8.63;;;3.60;;
74231;SDS011;62590;52.430;4.902;2022-09-29T04:05:17;5.95;;;3.42;;
74231;SDS011;62590;52.430;4.902;2022-09-29T04:07:43;7.85;;;3.63;;
74231;SDS011;62590;52.430;4.902;2022-09-29T04:10:09;9.35;;;4.60;;
74231;SDS011;62590;52.430;4.902;2022-09-29T04:12:34;6.22;;;2.88;;
74231;SDS011;62590;52.430;4.902;2022-09-29T04:14:59;5.28;;;3.63;;
74231;SDS011;62590;52.430;4.902;2022-09-29T04:17:25;4.47;;;3.08;;
74231;SDS011;62590;52.430;4.902;2022-09-29T04:19:50;4.32;;;2.53;;
74231;SDS011;62590;52.430;4.902;2022-09-29T04:22:16;4.70;;;2.90;;
74231;SDS011;62590;52.430;4.902;2022-09-29T04:24:45;5.57;;;3.30;;
74231;SDS011;62590;52.430;4.902;2022-09-29T04:27:12;4.70;;;2.40;;
74231;SDS011;62590;52.430;4.902;2022-09-29T04:29:38;5.35;;;2.88;;
74231;SDS011;62590;52.430;4.902;2022-09-29T04:32:03;5.38;;;3.22;;
74231;SDS011;62590;52.430;4.902;2022-09-29T04:34:30;5.68;;;2.72;;
74231;SDS011;62590;52.430;4.902;2022-09-29T04:36:56;4.00;;;2.70;;
74231;SDS011;62590;52.430;4.902;2022-09-29T04:39:21;10.38;;;2.95;;
74231;SDS011;62590;52.430;4.902;2022-09-29T04:41:46;15.77;;;3.65;;
74231;SDS011;62590;52.430;4.902;2022-09-29T04:44:12;5.38;;;2.47;;
74231;SDS011;62590;52.430;4.902;2022-09-29T04:46:37;5.60;;;2.50;;
74231;SDS011;62590;52.430;4.902;2022-09-29T04:49:02;4.82;;;2.80;;
74231;SDS011;62590;52.430;4.902;2022-09-29T04:51:28;2.95;;;2.08;;
74231;SDS011;62590;52.430;4.902;2022-09-29T04:53:53;5.95;;;2.97;;
74231;SDS011;62590;52.430;4.902;2022-09-29T04:56:18;4.35;;;2.95;;
74231;SDS011;62590;52.430;4.902;2022-09-29T04:58:44;4.80;;;2.85;;
74231;SDS011;62590;52.430;4.902;2022-09-29T05:01:10;3.75;;;2.53;;
74231;SDS011;62590;52.430;4.902;2022-09-29T05:03:39;5.22;;;2.60;;
74231;SDS011;62590;52.430;4.902;2022-09-29T05:06:05;4.60;;;2.25;;
74231;SDS011;62590;52.430;4.902;2022-09-29T05:08:31;4.00;;;2.25;;
74231;SDS011;62590;52.430;4.902;2022-09-29T05:10:56;4.05;;;2.47;;
74231;SDS011;62590;52.430;4.902;2022-09-29T05:13:22;5.03;;;2.67;;
74231;SDS011;62590;52.430;4.902;2022-09-29T05:15:48;5.40;;;2.45;;
74231;SDS011;62590;52.430;4.902;2022-09-29T05:18:13;5.25;;;2.22;;
74231;SDS011;62590;52.430;4.902;2022-09-29T05:20:39;3.63;;;1.92;;
74231;SDS011;62590;52.430;4.902;2022-09-29T05:23:04;3.22;;;2.10;;
74231;SDS011;62590;52.430;4.902;2022-09-29T05:25:34;3.17;;;2.10;;
74231;SDS011;62590;52.430;4.902;2022-09-29T05:28:00;3.47;;;2.10;;
74231;SDS011;62590;52.430;4.902;2022-09-29T05:30:26;3.58;;;2.33;;
74231;SDS011;62590;52.430;4.902;2022-09-29T05:32:51;4.05;;;2.50;;
74231;SDS011;62590;52.430;4.902;2022-09-29T05:35:16;4.57;;;2.45;;
74231;SDS011;62590;52.430;4.902;2022-09-29T05:37:42;3.58;;;2.15;;
74231;SDS011;62590;52.430;4.902;2022-09-29T05:40:07;3.67;;;2.15;;
74231;SDS011;62590;52.430;4.902;2022-09-29T05:42:34;3.47;;;2.28;;
74231;SDS011;62590;52.430;4.902;2022-09-29T05:44:59;5.03;;;2.45;;
74231;SDS011;62590;52.430;4.902;2022-09-29T05:47:25;4.72;;;2.60;;
74231;SDS011;62590;52.430;4.902;2022-09-29T05:49:50;5.63;;;2.53;;
74231;SDS011;62590;52.430;4.902;2022-09-29T05:52:16;5.03;;;2.65;;
74231;SDS011;62590;52.430;4.902;2022-09-29T05:54:41;5.80;;;2.78;;
74231;SDS011;62590;52.430;4.902;2022-09-29T05:57:06;5.32;;;3.38;;
74231;SDS011;62590;52.430;4.902;2022-09-29T05:59:31;14.82;;;3.42;;
74231;SDS011;62590;52.430;4.902;2022-09-29T06:01:57;7.95;;;3.42;;
74231;SDS011;62590;52.430;4.902;2022-09-29T06:04:22;6.25;;;4.30;;
74231;SDS011;62590;52.430;4.902;2022-09-29T06:06:47;8.55;;;3.63;;
74231;SDS011;62590;52.430;4.902;2022-09-29T06:09:13;7.97;;;3.75;;
74231;SDS011;62590;52.430;4.902;2022-09-29T06:11:39;5.78;;;3.53;;
74231;SDS011;62590;52.430;4.902;2022-09-29T06:14:04;9.05;;;3.42;;
74231;SDS011;62590;52.430;4.902;2022-09-29T06:16:30;6.85;;;3.88;;
74231;SDS011;62590;52.430;4.902;2022-09-29T06:18:57;7.38;;;4.53;;
74231;SDS011;62590;52.430;4.902;2022-09-29T06:21:25;8.75;;;4.47;;
74231;SDS011;62590;52.430;4.902;2022-09-29T06:23:55;10.85;;;4.75;;
74231;SDS011;62590;52.430;4.902;2022-09-29T06:26:22;12.77;;;5.32;;
74231;SDS011;62590;52.430;4.902;2022-09-29T06:28:48;11.80;;;5.43;;
74231;SDS011;62590;52.430;4.902;2022-09-29T06:31:14;15.45;;;6.75;;
74231;SDS011;62590;52.430;4.902;2022-09-29T06:33:44;16.63;;;9.05;;
74231;SDS011;62590;52.430;4.902;2022-09-29T06:36:19;21.20;;;10.65;;
74231;SDS011;62590;52.430;4.902;2022-09-29T06:39:07;16.60;;;9.00;;
74231;SDS011;62590;52.430;4.902;2022-09-29T06:41:34;15.02;;;9.00;;
74231;SDS011;62590;52.430;4.902;2022-09-29T06:44:00;17.08;;;8.68;;
74231;SDS011;62590;52.430;4.902;2022-09-29T06:46:25;19.40;;;10.00;;
74231;SDS011;62590;52.430;4.902;2022-09-29T06:48:51;20.30;;;10.50;;
74231;SDS011;62590;52.430;4.902;2022-09-29T06:51:18;18.33;;;9.63;;
74231;SDS011;62590;52.430;4.902;2022-09-29T06:53:46;21.20;;;11.02;;
74231;SDS011;62590;52.430;4.902;2022-09-29T06:56:12;19.88;;;10.65;;
74231;SDS011;62590;52.430;4.902;2022-09-29T06:58:37;20.15;;;10.55;;
74231;SDS011;62590;52.430;4.902;2022-09-29T07:01:02;17.27;;;10.63;;
74231;SDS011;62590;52.430;4.902;2022-09-29T07:03:29;19.33;;;10.73;;
74231;SDS011;62590;52.430;4.902;2022-09-29T07:05:55;28.30;;;11.77;;
74231;SDS011;62590;52.430;4.902;2022-09-29T07:08:21;26.63;;;12.65;;
74231;SDS011;62590;52.430;4.902;2022-09-29T07:10:47;28.27;;;14.18;;
74231;SDS011;62590;52.430;4.902;2022-09-29T07:13:12;29.45;;;14.73;;
74231;SDS011;62590;52.430;4.902;2022-09-29T07:15:38;25.40;;;14.00;;
74231;SDS011;62590;52.430;4.902;2022-09-29T07:18:03;34.78;;;17.50;;
74231;SDS011;62590;52.430;4.902;2022-09-29T07:20:29;34.53;;;17.25;;
74231;SDS011;62590;52.430;4.902;2022-09-29T07:22:55;47.00;;;19.75;;
74231;SDS011;62590;52.430;4.902;2022-09-29T07:25:22;44.85;;;20.02;;
74231;SDS011;62590;52.430;4.902;2022-09-29T07:27:48;55.88;;;24.75;;
74231;SDS011;62590;52.430;4.902;2022-09-29T07:30:15;77.38;;;29.30;;
74231;SDS011;62590;52.430;4.902;2022-09-29T07:32:41;79.78;;;30.58;;
74231;SDS011;62590;52.430;4.902;2022-09-29T07:35:07;92.93;;;33.88;;
74231;SDS011;62590;52.430;4.902;2022-09-29T07:37:32;98.85;;;36.63;;
74231;SDS011;62590;52.430;4.902;2022-09-29T07:39:58;110.43;;;37.38;;
74231;SDS011;62590;52.430;4.902;2022-09-29T07:42:23;113.20;;;39.58;;
74231;SDS011;62590;52.430;4.902;2022-09-29T07:44:48;119.95;;;40.80;;
74231;SDS011;62590;52.430;4.902;2022-09-29T07:47:14;137.45;;;43.03;;
74231;SDS011;62590;52.430;4.902;2022-09-29T07:49:39;145.15;;;42.65;;
74231;SDS011;62590;52.430;4.902;2022-09-29T07:52:05;137.23;;;43.03;;
74231;SDS011;62590;52.430;4.902;2022-09-29T07:54:30;130.45;;;44.08;;
74231;SDS011;62590;52.430;4.902;2022-09-29T07:56:56;150.48;;;45.70;;
74231;SDS011;62590;52.430;4.902;2022-09-29T07:59:24;157.23;;;46.70;;
74231;SDS011;62590;52.430;4.902;2022-09-29T08:01:50;165.00;;;50.85;;
74231;SDS011;62590;52.430;4.902;2022-09-29T08:04:15;174.02;;;52.17;;
74231;SDS011;62590;52.430;4.902;2022-09-29T08:06:41;186.93;;;54.42;;
74231;SDS011;62590;52.430;4.902;2022-09-29T08:09:07;171.23;;;52.17;;
74231;SDS011;62590;52.430;4.902;2022-09-29T08:11:35;188.13;;;53.88;;
74231;SDS011;62590;52.430;4.902;2022-09-29T08:14:02;197.57;;;56.17;;
74231;SDS011;62590;52.430;4.902;2022-09-29T08:16:27;212.95;;;55.33;;
74231;SDS011;62590;52.430;4.902;2022-09-29T08:18:53;186.45;;;54.47;;
74231;SDS011;62590;52.430;4.902;2022-09-29T08:21:19;207.68;;;57.88;;
74231;SDS011;62590;52.430;4.902;2022-09-29T08:23:44;217.05;;;57.95;;
74231;SDS011;62590;52.430;4.902;2022-09-29T08:26:14;216.38;;;58.10;;
74231;SDS011;62590;52.430;4.902;2022-09-29T08:28:41;204.50;;;56.67;;
74231;SDS011;62590;52.430;4.902;2022-09-29T08:31:09;210.63;;;59.20;;
74231;SDS011;62590;52.430;4.902;2022-09-29T08:33:38;201.48;;;56.05;;
74231;SDS011;62590;52.430;4.902;2022-09-29T08:36:05;206.95;;;58.80;;
74231;SDS011;62590;52.430;4.902;2022-09-29T08:38:38;205.23;;;58.47;;
74231;SDS011;62590;52.430;4.902;2022-09-29T08:41:09;223.82;;;55.75;;
74231;SDS011;62590;52.430;4.902;2022-09-29T08:43:49;171.73;;;47.97;;
74231;SDS011;62590;52.430;4.902;2022-09-29T08:48:50;180.98;;;51.95;;
74231;SDS011;62590;52.430;4.902;2022-09-29T08:51:39;183.15;;;52.65;;
74231;SDS011;62590;52.430;4.902;2022-09-29T08:54:46;198.23;;;53.72;;
74231;SDS011;62590;52.430;4.902;2022-09-29T08:57:06;160.60;;;49.97;;
74231;SDS011;62590;52.430;4.902;2022-09-29T08:59:41;184.90;;;49.75;;
74231;SDS011;62590;52.430;4.902;2022-09-29T09:10:49;167.15;;;47.78;;
74231;SDS011;62590;52.430;4.902;2022-09-29T09:16:04;157.88;;;46.08;;
74231;SDS011;62590;52.430;4.902;2022-09-29T09:18:52;144.25;;;43.95;;
74231;SDS011;62590;52.430;4.902;2022-09-29T09:21:27;94.65;;;28.73;;
74231;SDS011;62590;52.430;4.902;2022-09-29T09:24:27;105.10;;;32.17;;
74231;SDS011;62590;52.430;4.902;2022-09-29T09:26:58;112.05;;;32.60;;
74231;SDS011;62590;52.430;4.902;2022-09-29T09:29:39;87.78;;;30.25;;
74231;SDS011;62590;52.430;4.902;2022-09-29T09:32:08;96.78;;;26.60;;
74231;SDS011;62590;52.430;4.902;2022-09-29T09:34:39;77.53;;;23.48;;
74231;SDS011;62590;52.430;4.902;2022-09-29T09:43:02;39.22;;;15.00;;
74231;SDS011;62590;52.430;4.902;2022-09-29T09:46:19;95.53;;;32.22;;
74231;SDS011;62590;52.430;4.902;2022-09-29T09:48:37;79.70;;;28.92;;
74231;SDS011;62590;52.430;4.902;2022-09-29T09:51:16;66.47;;;25.52;;
74231;SDS011;62590;52.430;4.902;2022-09-29T09:53:49;51.28;;;18.50;;
74231;SDS011;62590;52.430;4.902;2022-09-29T09:56:23;45.78;;;17.55;;
74231;SDS011;62590;52.430;4.902;2022-09-29T10:01:34;39.80;;;17.38;;
74231;SDS011;62590;52.430;4.902;2022-09-29T10:04:00;28.25;;;11.73;;
74231;SDS011;62590;52.430;4.902;2022-09-29T10:06:26;27.55;;;12.82;;
74231;SDS011;62590;52.430;4.902;2022-09-29T10:08:52;50.92;;;20.58;;
74231;SDS011;62590;52.430;4.902;2022-09-29T10:13:42;47.17;;;20.60;;
74231;SDS011;62590;52.430;4.902;2022-09-29T10:16:18;31.45;;;16.15;;
74231;SDS011;62590;52.430;4.902;2022-09-29T10:18:48;24.85;;;11.38;;
74231;SDS011;62590;52.430;4.902;2022-09-29T10:24:20;27.08;;;12.60;;
74231;SDS011;62590;52.430;4.902;2022-09-29T10:26:52;32.90;;;13.73;;
74231;SDS011;62590;52.430;4.902;2022-09-29T10:32:21;29.55;;;14.25;;
74231;SDS011;62590;52.430;4.902;2022-09-29T10:37:29;22.85;;;12.20;;
74231;SDS011;62590;52.430;4.902;2022-09-29T10:42:38;15.85;;;9.20;;
74231;SDS011;62590;52.430;4.902;2022-09-29T10:45:16;28.42;;;11.98;;
74231;SDS011;62590;52.430;4.902;2022-09-29T10:52:52;22.48;;;7.85;;
74231;SDS011;62590;52.430;4.902;2022-09-29T10:57:50;22.52;;;10.15;;
74231;SDS011;62590;52.430;4.902;2022-09-29T11:05:51;18.80;;;8.57;;
74231;SDS011;62590;52.430;4.902;2022-09-29T11:08:18;14.00;;;6.88;;
74231;SDS011;62590;52.430;4.902;2022-09-29T11:10:49;16.20;;;6.68;;
74231;SDS011;62590;52.430;4.902;2022-09-29T11:13:46;13.63;;;6.45;;
74231;SDS011;62590;52.430;4.902;2022-09-29T11:18:46;15.80;;;7.70;;
74231;SDS011;62590;52.430;4.902;2022-09-29T11:26:43;13.20;;;5.57;;
74231;SDS011;62590;52.430;4.902;2022-09-29T11:34:21;14.68;;;4.22;;
74231;SDS011;62590;52.430;4.902;2022-09-29T11:42:16;12.98;;;5.13;;
74231;SDS011;62590;52.430;4.902;2022-09-29T11:45:09;8.45;;;3.95;;
74231;SDS011;62590;52.430;4.902;2022-09-29T11:58:00;10.85;;;4.82;;
74231;SDS011;62590;52.430;4.902;2022-09-29T12:00:50;8.20;;;4.68;;
74231;SDS011;62590;52.430;4.902;2022-09-29T12:07:18;4.28;;;2.13;;
74231;SDS011;62590;52.430;4.902;2022-09-29T12:17:15;4.95;;;2.20;;
74231;SDS011;62590;52.430;4.902;2022-09-29T12:19:43;5.15;;;1.73;;
74231;SDS011;62590;52.430;4.902;2022-09-29T12:22:13;3.40;;;1.80;;
74231;SDS011;62590;52.430;4.902;2022-09-29T12:24:44;6.50;;;2.00;;
74231;SDS011;62590;52.430;4.902;2022-09-29T12:27:17;4.75;;;1.88;;
74231;SDS011;62590;52.430;4.902;2022-09-29T12:29:56;6.45;;;2.25;;
74231;SDS011;62590;52.430;4.902;2022-09-29T12:32:49;5.47;;;1.88;;
74231;SDS011;62590;52.430;4.902;2022-09-29T12:40:41;5.68;;;1.67;;
74231;SDS011;62590;52.430;4.902;2022-09-29T12:43:16;5.40;;;1.55;;
74231;SDS011;62590;52.430;4.902;2022-09-29T12:56:48;4.22;;;2.30;;
74231;SDS011;62590;52.430;4.902;2022-09-29T13:02:03;3.58;;;2.65;;
74231;SDS011;62590;52.430;4.902;2022-09-29T13:15:40;9.07;;;2.80;;
74231;SDS011;62590;52.430;4.902;2022-09-29T13:29:16;5.72;;;1.80;;
74231;SDS011;62590;52.430;4.902;2022-09-29T13:31:44;4.53;;;1.70;;
74231;SDS011;62590;52.430;4.902;2022-09-29T13:34:28;4.75;;;2.05;;
74231;SDS011;62590;52.430;4.902;2022-09-29T13:37:16;5.70;;;1.83;;
74231;SDS011;62590;52.430;4.902;2022-09-29T13:39:59;5.00;;;1.70;;
74231;SDS011;62590;52.430;4.902;2022-09-29T13:42:44;3.28;;;2.25;;
74231;SDS011;62590;52.430;4.902;2022-09-29T13:47:49;7.28;;;2.47;;
74231;SDS011;62590;52.430;4.902;2022-09-29T13:58:28;5.07;;;2.92;;
74231;SDS011;62590;52.430;4.902;2022-09-29T14:01:27;17.27;;;2.80;;
74231;SDS011;62590;52.430;4.902;2022-09-29T14:03:55;4.82;;;2.78;;
74231;SDS011;62590;52.430;4.902;2022-09-29T14:06:23;5.28;;;2.75;;
74231;SDS011;62590;52.430;4.902;2022-09-29T14:11:41;2.65;;;1.55;;
74231;SDS011;62590;52.430;4.902;2022-09-29T14:24:54;1.90;;;0.73;;
74231;SDS011;62590;52.430;4.902;2022-09-29T14:27:32;2.20;;;1.10;;
74231;SDS011;62590;52.430;4.902;2022-09-29T14:30:18;3.17;;;1.00;;
74231;SDS011;62590;52.430;4.902;2022-09-29T14:33:12;1.80;;;1.00;;
74231;SDS011;62590;52.430;4.902;2022-09-29T14:38:21;5.10;;;1.67;;
74231;SDS011;62590;52.430;4.902;2022-09-29T14:56:10;2.45;;;0.60;;
74231;SDS011;62590;52.430;4.902;2022-09-29T14:58:57;2.17;;;0.80;;
74231;SDS011;62590;52.430;4.902;2022-09-29T15:01:35;1.17;;;0.60;;
74231;SDS011;62590;52.430;4.902;2022-09-29T15:04:21;1.75;;;0.80;;
74231;SDS011;62590;52.430;4.902;2022-09-29T15:06:47;2.40;;;1.20;;
74231;SDS011;62590;52.430;4.902;2022-09-29T15:09:15;7.38;;;1.08;;
74231;SDS011;62590;52.430;4.902;2022-09-29T15:11:42;2.83;;;0.85;;
74231;SDS011;62590;52.430;4.902;2022-09-29T15:14:21;1.13;;;0.88;;
74231;SDS011;62590;52.430;4.902;2022-09-29T15:30:26;1.27;;;0.50;;
74231;SDS011;62590;52.430;4.902;2022-09-29T15:32:53;96.75;;;64.20;;
74231;SDS011;62590;52.430;4.902;2022-09-29T15:35:27;176.20;;;97.50;;
74231;SDS011;62590;52.430;4.902;2022-09-29T15:38:36;235.65;;;117.65;;
74231;SDS011;62590;52.430;4.902;2022-09-29T15:40:57;28.13;;;12.68;;
74231;SDS011;62590;52.430;4.902;2022-09-29T15:43:38;44.13;;;22.88;;
74231;SDS011;62590;52.430;4.902;2022-09-29T15:46:17;71.60;;;37.30;;
74231;SDS011;62590;52.430;4.902;2022-09-29T15:51:30;205.48;;;108.50;;
74231;SDS011;62590;52.430;4.902;2022-09-29T15:53:56;200.88;;;106.28;;
74231;SDS011;62590;52.430;4.902;2022-09-29T15:56:24;11.52;;;6.32;;
74231;SDS011;62590;52.430;4.902;2022-09-29T15:58:49;12.02;;;6.22;;
74231;SDS011;62590;52.430;4.902;2022-09-29T16:01:15;30.73;;;14.38;;
74231;SDS011;62590;52.430;4.902;2022-09-29T16:06:18;99.03;;;55.88;;
74231;SDS011;62590;52.430;4.902;2022-09-29T16:08:52;71.55;;;38.70;;
74231;SDS011;62590;52.430;4.902;2022-09-29T16:11:23;58.15;;;34.38;;
74231;SDS011;62590;52.430;4.902;2022-09-29T16:14:10;7.47;;;3.50;;
74231;SDS011;62590;52.430;4.902;2022-09-29T16:16:44;37.97;;;20.52;;
74231;SDS011;62590;52.430;4.902;2022-09-29T16:19:15;5.78;;;2.92;;
74231;SDS011;62590;52.430;4.902;2022-09-29T16:21:52;53.25;;;29.55;;
74231;SDS011;62590;52.430;4.902;2022-09-29T16:24:20;37.10;;;19.08;;
74231;SDS011;62590;52.430;4.902;2022-09-29T16:26:51;33.72;;;18.98;;
74231;SDS011;62590;52.430;4.902;2022-09-29T16:31:44;26.65;;;15.18;;
74231;SDS011;62590;52.430;4.902;2022-09-29T16:36:55;23.00;;;10.60;;
74231;SDS011;62590;52.430;4.902;2022-09-29T16:39:44;16.77;;;9.02;;
74231;SDS011;62590;52.430;4.902;2022-09-29T16:42:22;19.95;;;10.45;;
74231;SDS011;62590;52.430;4.902;2022-09-29T16:44:50;13.00;;;8.50;;
74231;SDS011;62590;52.430;4.902;2022-09-29T16:49:51;12.00;;;7.10;;
74231;SDS011;62590;52.430;4.902;2022-09-29T16:52:42;14.52;;;8.00;;
74231;SDS011;62590;52.430;4.902;2022-09-29T16:57:57;12.15;;;6.40;;
74231;SDS011;62590;52.430;4.902;2022-09-29T17:00:25;7.68;;;4.85;;
74231;SDS011;62590;52.430;4.902;2022-09-29T17:02:51;10.80;;;5.85;;
74231;SDS011;62590;52.430;4.902;2022-09-29T17:05:17;9.25;;;4.70;;
74231;SDS011;62590;52.430;4.902;2022-09-29T17:07:42;6.05;;;3.63;;
74231;SDS011;62590;52.430;4.902;2022-09-29T17:10:18;3.95;;;1.92;;
74231;SDS011;62590;52.430;4.902;2022-09-29T17:12:45;2.38;;;1.15;;
74231;SDS011;62590;52.430;4.902;2022-09-29T17:15:14;2.42;;;0.70;;
74231;SDS011;62590;52.430;4.902;2022-09-29T17:17:43;4.63;;;0.90;;
74231;SDS011;62590;52.430;4.902;2022-09-29T17:20:14;7.15;;;1.42;;
74231;SDS011;62590;52.430;4.902;2022-09-29T17:22:42;1.08;;;0.52;;
74231;SDS011;62590;52.430;4.902;2022-09-29T17:25:12;6.03;;;1.10;;
74231;SDS011;62590;52.430;4.902;2022-09-29T17:27:37;6.57;;;2.22;;
74231;SDS011;62590;52.430;4.902;2022-09-29T17:30:23;3.00;;;1.60;;
74231;SDS011;62590;52.430;4.902;2022-09-29T17:32:51;4.57;;;1.08;;
74231;SDS011;62590;52.430;4.902;2022-09-29T17:35:18;2.78;;;1.65;;
74231;SDS011;62590;52.430;4.902;2022-09-29T17:37:45;3.75;;;1.65;;
74231;SDS011;62590;52.430;4.902;2022-09-29T17:42:45;5.20;;;1.67;;
74231;SDS011;62590;52.430;4.902;2022-09-29T17:45:15;4.15;;;1.30;;
74231;SDS011;62590;52.430;4.902;2022-09-29T17:47:42;3.47;;;1.50;;
74231;SDS011;62590;52.430;4.902;2022-09-29T17:53:10;5.15;;;1.40;;
74231;SDS011;62590;52.430;4.902;2022-09-29T17:55:37;3.20;;;1.23;;
74231;SDS011;62590;52.430;4.902;2022-09-29T17:58:03;5.07;;;1.15;;
74231;SDS011;62590;52.430;4.902;2022-09-29T18:00:31;4.68;;;0.93;;
74231;SDS011;62590;52.430;4.902;2022-09-29T18:03:02;5.32;;;1.60;;
74231;SDS011;62590;52.430;4.902;2022-09-29T18:05:29;2.05;;;1.00;;
74231;SDS011;62590;52.430;4.902;2022-09-29T18:07:57;3.25;;;0.88;;
74231;SDS011;62590;52.430;4.902;2022-09-29T18:10:33;3.33;;;0.75;;
74231;SDS011;62590;52.430;4.902;2022-09-29T18:13:02;6.78;;;1.23;;
74231;SDS011;62590;52.430;4.902;2022-09-29T18:15:28;1.27;;;0.80;;
74231;SDS011;62590;52.430;4.902;2022-09-29T18:17:57;1.63;;;1.00;;
74231;SDS011;62590;52.430;4.902;2022-09-29T18:20:24;2.60;;;1.13;;
74231;SDS011;62590;52.430;4.902;2022-09-29T18:22:52;3.45;;;0.95;;
74231;SDS011;62590;52.430;4.902;2022-09-29T18:25:17;3.00;;;0.90;;
74231;SDS011;62590;52.430;4.902;2022-09-29T18:27:44;4.20;;;0.98;;
74231;SDS011;62590;52.430;4.902;2022-09-29T18:30:20;3.03;;;0.98;;
74231;SDS011;62590;52.430;4.902;2022-09-29T18:32:52;2.88;;;0.82;;
74231;SDS011;62590;52.430;4.902;2022-09-29T18:35:23;4.22;;;0.60;;
74231;SDS011;62590;52.430;4.902;2022-09-29T18:37:57;11.38;;;1.20;;
74231;SDS011;62590;52.430;4.902;2022-09-29T18:40:23;3.90;;;1.10;;
74231;SDS011;62590;52.430;4.902;2022-09-29T18:42:49;6.18;;;1.20;;
74231;SDS011;62590;52.430;4.902;2022-09-29T18:45:18;3.83;;;1.10;;
74231;SDS011;62590;52.430;4.902;2022-09-29T18:47:47;2.88;;;0.82;;
74231;SDS011;62590;52.430;4.902;2022-09-29T18:50:14;7.00;;;1.17;;
74231;SDS011;62590;52.430;4.902;2022-09-29T18:52:45;5.45;;;1.02;;
74231;SDS011;62590;52.430;4.902;2022-09-29T18:55:11;11.77;;;1.45;;
74231;SDS011;62590;52.430;4.902;2022-09-29T18:57:37;1.67;;;1.00;;
74231;SDS011;62590;52.430;4.902;2022-09-29T19:00:03;2.85;;;1.00;;
74231;SDS011;62590;52.430;4.902;2022-09-29T19:02:34;7.07;;;1.23;;
74231;SDS011;62590;52.430;4.902;2022-09-29T19:04:59;2.15;;;1.00;;